Observations for Trim Patrick St
| Time | AQI | Temp °C | Hum % | Pres Pa | CO μg/m³ | H₂S μg/m³ | NO μg/m³ | NO₂ μg/m³ | O₃ μg/m³ | SO₂ μg/m³ | PM1 μg/m³ | PM2.5 μg/m³ | PM10 μg/m³ |
|---|---|---|---|---|---|---|---|---|---|---|---|---|---|
| Thursday 3 September 2026 | |||||||||||||
| 03:38 | 2 | 17.2 | 83 | 38,460 | 0.06 | 0 | 1.33 | 11.25 | 42.28 | 0 | 2 | 5.04 | 5.54 |
| 03:37 | 2 | 17.2 | 83 | 38,460 | 0.07 | 0 | 1.47 | 11.92 | 42.02 | 0 | 2 | 5.03 | 5.54 |
| 03:36 | 2 | 17.2 | 83 | 38,460 | 0.07 | 0 | 1.45 | 11.84 | 47.2 | 0 | 2.86 | 6.4 | 7.04 |
| 03:35 | 2 | 17.2 | 83 | 38,460 | 0.08 | 0 | 1.46 | 11.94 | 42.95 | 0 | 2.86 | 5.71 | 6.28 |
| 03:34 | 2 | 17.2 | 83 | 38,460 | 0.07 | 0 | 1.44 | 12.08 | 43.32 | 0 | 2.86 | 5.7 | 6.27 |
| 03:33 | 2 | 17.2 | 83 | 38,460 | 0.07 | 0 | 1.65 | 11.97 | 41.42 | 0 | 2.86 | 5.69 | 6.26 |
| 03:32 | 2 | 17.2 | 83 | 38,460 | 0.07 | 0 | 1.42 | 11.96 | 42.28 | 0 | 2 | 5.01 | 5.51 |
| 03:31 | 2 | 17.2 | 83 | 38,460 | 0.08 | 0 | 1.61 | 11.51 | 41.8 | 0 | 2.86 | 5.69 | 6.26 |
| 03:30 | 2 | 17.2 | 83 | 38,460 | 0.06 | 0 | 1.48 | 12.2 | 46.58 | 0 | 2 | 5 | 5.5 |
| 03:29 | 2 | 17.2 | 84 | 38,460 | 0.07 | 0 | 1.53 | 11.52 | 43.09 | 0 | 3.71 | 6.38 | 7.02 |
| 03:28 | 2 | 17.2 | 83 | 38,460 | 0.06 | 0 | 1.53 | 11.97 | 41.31 | 0 | 2 | 6.39 | 7.02 |
| 03:27 | 2 | 17.2 | 84 | 38,460 | 0.07 | 0 | 1.57 | 12.93 | 48.01 | 0 | 2.86 | 4.99 | 5.49 |
| 03:26 | 2 | 17.2 | 84 | 38,460 | 0.06 | 0 | 1.44 | 12.94 | 48.12 | 0 | 2.86 | 6.37 | 7.01 |
| 03:25 | 2 | 17.2 | 84 | 38,460 | 0.06 | 0 | 1.7 | 11.76 | 40.99 | 0 | 2 | 4.99 | 5.48 |
| 03:24 | 2 | 17.2 | 84 | 38,460 | 0.06 | 0 | 1.51 | 12.86 | 46.62 | 0 | 2.86 | 6.37 | 7.01 |
| 03:23 | 2 | 17.2 | 84 | 38,460 | 0.07 | 0 | 1.46 | 12.55 | 44.41 | 0 | 2 | 5.67 | 6.24 |
| 03:22 | 2 | 17.2 | 84 | 38,460 | 0.06 | 0 | 1.48 | 12.55 | 42.98 | 0 | 2.86 | 5.67 | 6.24 |
| 03:21 | 2 | 17.2 | 84 | 38,460 | 0.06 | 0 | 1.46 | 12.66 | 44.98 | 0 | 3.71 | 6.36 | 6.99 |
| 03:20 | 2 | 17.2 | 84 | 38,460 | 0.07 | 0 | 1.29 | 12.66 | 41.79 | 0 | 2 | 4.97 | 5.47 |
| 03:19 | 2 | 17.2 | 84 | 38,460 | 0.08 | 0 | 1.43 | 13.39 | 47.46 | 0 | 2.86 | 5.66 | 6.22 |